sensor_id;sensor_type;location;lat;lon;timestamp;temperature;humidity
65995;HTU21D;52764;51.036;5.852;2022-10-16T00:00:39;17.30;75.92
65995;HTU21D;52764;51.036;5.852;2022-10-16T00:03:06;17.29;72.99
65995;HTU21D;52764;51.036;5.852;2022-10-16T00:05:33;17.26;72.98
65995;HTU21D;52764;51.036;5.852;2022-10-16T00:07:58;17.24;73.00
65995;HTU21D;52764;51.036;5.852;2022-10-16T00:10:24;17.20;73.06
65995;HTU21D;52764;51.036;5.852;2022-10-16T00:12:50;17.15;74.15
65995;HTU21D;52764;51.036;5.852;2022-10-16T00:15:16;17.02;59.73
65995;HTU21D;52764;51.036;5.852;2022-10-16T00:17:42;16.94;74.13
65995;HTU21D;52764;51.036;5.852;2022-10-16T00:20:08;16.86;74.45
65995;HTU21D;52764;51.036;5.852;2022-10-16T00:22:33;16.80;74.80
65995;HTU21D;52764;51.036;5.852;2022-10-16T00:24:59;16.76;75.01
65995;HTU21D;52764;51.036;5.852;2022-10-16T00:27:25;-7.55;75.25
65995;HTU21D;52764;51.036;5.852;2022-10-16T00:29:51;16.69;75.43
65995;HTU21D;52764;51.036;5.852;2022-10-16T00:32:20;14.33;75.52
65995;HTU21D;52764;51.036;5.852;2022-10-16T00:34:46;16.67;75.56
65995;HTU21D;52764;51.036;5.852;2022-10-16T00:37:13;16.66;75.66
65995;HTU21D;52764;51.036;5.852;2022-10-16T00:39:39;16.64;75.66
65995;HTU21D;52764;51.036;5.852;2022-10-16T00:42:05;-7.81;75.90
65995;HTU21D;52764;51.036;5.852;2022-10-16T00:44:55;16.64;75.64
65995;HTU21D;52764;51.036;5.852;2022-10-16T00:50:00;16.65;75.53
65995;HTU21D;52764;51.036;5.852;2022-10-16T00:52:27;16.69;75.59
65995;HTU21D;52764;51.036;5.852;2022-10-16T00:54:54;16.64;75.50
65995;HTU21D;52764;51.036;5.852;2022-10-16T00:57:21;16.65;79.01
65995;HTU21D;52764;51.036;5.852;2022-10-16T00:59:46;16.65;75.56
65995;HTU21D;52764;51.036;5.852;2022-10-16T01:02:15;17.07;79.01
65995;HTU21D;52764;51.036;5.852;2022-10-16T01:04:52;16.69;75.44
65995;HTU21D;52764;51.036;5.852;2022-10-16T01:15:30;16.70;74.99
65995;HTU21D;52764;51.036;5.852;2022-10-16T01:20:37;16.66;77.78
65995;HTU21D;52764;51.036;5.852;2022-10-16T01:23:25;16.67;74.88
65995;HTU21D;52764;51.036;5.852;2022-10-16T01:26:42;16.69;74.83
65995;HTU21D;52764;51.036;5.852;2022-10-16T01:29:18;16.62;74.86
65995;HTU21D;52764;51.036;5.852;2022-10-16T01:31:52;16.60;74.87
65995;HTU21D;52764;51.036;5.852;2022-10-16T01:34:28;16.59;75.02
65995;HTU21D;52764;51.036;5.852;2022-10-16T01:37:04;16.57;78.08
65995;HTU21D;52764;51.036;5.852;2022-10-16T01:39:35;16.55;75.17
65995;HTU21D;52764;51.036;5.852;2022-10-16T01:42:13;16.49;75.29
65995;HTU21D;52764;51.036;5.852;2022-10-16T01:44:42;16.51;75.32
65995;HTU21D;52764;51.036;5.852;2022-10-16T01:47:10;16.51;74.60
65995;HTU21D;52764;51.036;5.852;2022-10-16T01:49:40;16.49;75.28
65995;HTU21D;52764;51.036;5.852;2022-10-16T01:52:15;16.64;75.35
65995;HTU21D;52764;51.036;5.852;2022-10-16T01:54:46;16.48;75.36
65995;HTU21D;52764;51.036;5.852;2022-10-16T01:57:15;16.47;75.35
65995;HTU21D;52764;51.036;5.852;2022-10-16T01:59:48;16.47;63.11
65995;HTU21D;52764;51.036;5.852;2022-10-16T02:02:17;16.64;75.47
65995;HTU21D;52764;51.036;5.852;2022-10-16T02:05:49;16.71;75.33
65995;HTU21D;52764;51.036;5.852;2022-10-16T02:07:43;16.75;75.42
65995;HTU21D;52764;51.036;5.852;2022-10-16T02:10:10;16.55;75.39
65995;HTU21D;52764;51.036;5.852;2022-10-16T02:12:39;16.57;75.25
65995;HTU21D;52764;51.036;5.852;2022-10-16T02:15:06;16.56;75.16
65995;HTU21D;52764;51.036;5.852;2022-10-16T02:17:32;16.54;75.17
65995;HTU21D;52764;51.036;5.852;2022-10-16T02:19:59;16.50;75.25
65995;HTU21D;52764;51.036;5.852;2022-10-16T02:22:39;16.48;75.27
65995;HTU21D;52764;51.036;5.852;2022-10-16T02:25:22;16.41;75.54
65995;HTU21D;52764;51.036;5.852;2022-10-16T02:27:57;16.45;75.67
65995;HTU21D;52764;51.036;5.852;2022-10-16T02:30:46;16.37;75.70
65995;HTU21D;52764;51.036;5.852;2022-10-16T02:33:15;-8.14;75.40
65995;HTU21D;52764;51.036;5.852;2022-10-16T02:35:46;16.33;75.82
65995;HTU21D;52764;51.036;5.852;2022-10-16T02:38:14;16.32;75.86
65995;HTU21D;52764;51.036;5.852;2022-10-16T02:40:40;-13.77;64.00
65995;HTU21D;52764;51.036;5.852;2022-10-16T02:43:06;16.33;75.89
65995;HTU21D;52764;51.036;5.852;2022-10-16T02:45:32;16.32;75.94
65995;HTU21D;52764;51.036;5.852;2022-10-16T02:47:58;16.32;75.91
65995;HTU21D;52764;51.036;5.852;2022-10-16T02:50:24;16.34;75.93
65995;HTU21D;52764;51.036;5.852;2022-10-16T02:52:50;16.36;75.89
65995;HTU21D;52764;51.036;5.852;2022-10-16T02:55:17;16.35;75.82
65995;HTU21D;52764;51.036;5.852;2022-10-16T02:57:43;16.40;75.84
65995;HTU21D;52764;51.036;5.852;2022-10-16T03:00:13;16.34;75.85
65995;HTU21D;52764;51.036;5.852;2022-10-16T03:02:39;16.30;79.70
65995;HTU21D;52764;51.036;5.852;2022-10-16T03:05:05;-8.28;79.50
65995;HTU21D;52764;51.036;5.852;2022-10-16T03:07:30;16.33;75.67
65995;HTU21D;52764;51.036;5.852;2022-10-16T03:09:56;16.30;75.88
65995;HTU21D;52764;51.036;5.852;2022-10-16T03:12:22;16.33;75.93
65995;HTU21D;52764;51.036;5.852;2022-10-16T03:14:48;16.56;75.79
65995;HTU21D;52764;51.036;5.852;2022-10-16T03:17:14;16.37;75.69
65995;HTU21D;52764;51.036;5.852;2022-10-16T03:19:42;16.31;63.79
65995;HTU21D;52764;51.036;5.852;2022-10-16T03:22:07;16.30;75.81
65995;HTU21D;52764;51.036;5.852;2022-10-16T03:24:33;16.22;75.92
65995;HTU21D;52764;51.036;5.852;2022-10-16T03:26:59;16.16;76.18
65995;HTU21D;52764;51.036;5.852;2022-10-16T03:29:26;16.15;76.32
65995;HTU21D;52764;51.036;5.852;2022-10-16T03:31:53;16.10;76.42
65995;HTU21D;52764;51.036;5.852;2022-10-16T03:34:18;16.03;76.60
65995;HTU21D;52764;51.036;5.852;2022-10-16T03:36:44;15.96;76.88
65995;HTU21D;52764;51.036;5.852;2022-10-16T03:39:10;15.89;77.12
65995;HTU21D;52764;51.036;5.852;2022-10-16T03:41:35;15.78;77.18
65995;HTU21D;52764;51.036;5.852;2022-10-16T03:44:01;15.85;77.22
65995;HTU21D;52764;51.036;5.852;2022-10-16T03:46:26;15.85;77.31
65995;HTU21D;52764;51.036;5.852;2022-10-16T03:48:52;15.84;77.39
65995;HTU21D;52764;51.036;5.852;2022-10-16T03:51:18;15.85;77.30
65995;HTU21D;52764;51.036;5.852;2022-10-16T03:53:43;15.85;77.24
65995;HTU21D;52764;51.036;5.852;2022-10-16T03:56:09;15.83;77.31
65995;HTU21D;52764;51.036;5.852;2022-10-16T03:58:35;15.85;77.43
65995;HTU21D;52764;51.036;5.852;2022-10-16T04:01:00;15.82;77.47
65995;HTU21D;52764;51.036;5.852;2022-10-16T04:03:26;-9.38;77.53
65995;HTU21D;52764;51.036;5.852;2022-10-16T04:05:52;15.36;77.57
65995;HTU21D;52764;51.036;5.852;2022-10-16T04:08:17;15.82;77.58
65995;HTU21D;52764;51.036;5.852;2022-10-16T04:10:44;15.78;77.62
65995;HTU21D;52764;51.036;5.852;2022-10-16T04:13:09;15.88;77.63
65995;HTU21D;52764;51.036;5.852;2022-10-16T04:15:35;15.83;77.70
65995;HTU21D;52764;51.036;5.852;2022-10-16T04:18:01;15.81;77.92
65995;HTU21D;52764;51.036;5.852;2022-10-16T04:20:26;15.82;77.96
65995;HTU21D;52764;51.036;5.852;2022-10-16T04:22:53;15.82;78.04
65995;HTU21D;52764;51.036;5.852;2022-10-16T04:25:18;15.86;78.04
65995;HTU21D;52764;51.036;5.852;2022-10-16T04:27:44;15.78;78.09
65995;HTU21D;52764;51.036;5.852;2022-10-16T04:30:10;15.88;78.06
65995;HTU21D;52764;51.036;5.852;2022-10-16T04:32:36;15.87;78.12
65995;HTU21D;52764;51.036;5.852;2022-10-16T04:35:01;15.86;78.17
65995;HTU21D;52764;51.036;5.852;2022-10-16T04:37:28;15.85;78.25
65995;HTU21D;52764;51.036;5.852;2022-10-16T04:39:54;15.85;78.27
65995;HTU21D;52764;51.036;5.852;2022-10-16T04:42:20;15.83;78.36
65995;HTU21D;52764;51.036;5.852;2022-10-16T04:44:45;15.84;78.41
65995;HTU21D;52764;51.036;5.852;2022-10-16T04:47:13;15.87;78.40
65995;HTU21D;52764;51.036;5.852;2022-10-16T04:49:38;15.83;78.66
65995;HTU21D;52764;51.036;5.852;2022-10-16T04:52:04;15.82;78.77
65995;HTU21D;52764;51.036;5.852;2022-10-16T04:54:30;15.82;78.85
65995;HTU21D;52764;51.036;5.852;2022-10-16T04:56:56;15.66;78.88
65995;HTU21D;52764;51.036;5.852;2022-10-16T04:59:23;18.72;78.92
65995;HTU21D;52764;51.036;5.852;2022-10-16T05:01:49;15.78;78.97
65995;HTU21D;52764;51.036;5.852;2022-10-16T05:04:15;15.78;70.24
65995;HTU21D;52764;51.036;5.852;2022-10-16T05:06:42;15.78;79.03
65995;HTU21D;52764;51.036;5.852;2022-10-16T05:09:08;15.80;78.96
65995;HTU21D;52764;51.036;5.852;2022-10-16T05:11:34;12.48;79.08
65995;HTU21D;52764;51.036;5.852;2022-10-16T05:14:00;15.76;79.18
65995;HTU21D;52764;51.036;5.852;2022-10-16T05:16:26;15.81;78.99
65995;HTU21D;52764;51.036;5.852;2022-10-16T05:18:52;15.83;68.02
65995;HTU21D;52764;51.036;5.852;2022-10-16T05:21:19;15.81;78.93
65995;HTU21D;52764;51.036;5.852;2022-10-16T05:23:45;15.82;79.01
65995;HTU21D;52764;51.036;5.852;2022-10-16T05:26:11;15.78;79.01
65995;HTU21D;52764;51.036;5.852;2022-10-16T05:28:36;15.80;79.17
65995;HTU21D;52764;51.036;5.852;2022-10-16T05:31:09;15.73;79.37
65995;HTU21D;52764;51.036;5.852;2022-10-16T05:33:36;15.70;79.69
65995;HTU21D;52764;51.036;5.852;2022-10-16T05:36:06;15.68;79.74
65995;HTU21D;52764;51.036;5.852;2022-10-16T05:38:37;15.67;79.78
65995;HTU21D;52764;51.036;5.852;2022-10-16T05:41:04;15.68;79.75
65995;HTU21D;52764;51.036;5.852;2022-10-16T05:43:31;12.31;79.78
65995;HTU21D;52764;51.036;5.852;2022-10-16T05:46:00;15.67;71.35
65995;HTU21D;52764;51.036;5.852;2022-10-16T05:48:26;15.67;79.78
65995;HTU21D;52764;51.036;5.852;2022-10-16T05:51:03;15.67;79.84
65995;HTU21D;52764;51.036;5.852;2022-10-16T05:53:31;15.69;79.84
65995;HTU21D;52764;51.036;5.852;2022-10-16T05:55:58;15.71;71.50
65995;HTU21D;52764;51.036;5.852;2022-10-16T05:58:25;15.73;79.74
65995;HTU21D;52764;51.036;5.852;2022-10-16T06:00:58;15.73;79.78
65995;HTU21D;52764;51.036;5.852;2022-10-16T06:03:24;15.74;79.75
65995;HTU21D;52764;51.036;5.852;2022-10-16T06:05:51;15.75;79.69
65995;HTU21D;52764;51.036;5.852;2022-10-16T06:08:17;15.74;79.60
65995;HTU21D;52764;51.036;5.852;2022-10-16T06:10:43;15.77;79.55
65995;HTU21D;52764;51.036;5.852;2022-10-16T06:13:10;15.78;79.42
65995;HTU21D;52764;51.036;5.852;2022-10-16T06:15:36;15.81;78.59
65995;HTU21D;52764;51.036;5.852;2022-10-16T06:18:01;15.84;79.18
65995;HTU21D;52764;51.036;5.852;2022-10-16T06:20:27;15.83;79.11
65995;HTU21D;52764;51.036;5.852;2022-10-16T06:22:52;15.82;79.03
65995;HTU21D;52764;51.036;5.852;2022-10-16T06:25:18;15.83;79.04
65995;HTU21D;52764;51.036;5.852;2022-10-16T06:27:44;15.82;79.01
65995;HTU21D;52764;51.036;5.852;2022-10-16T06:30:10;15.74;78.92
65995;HTU21D;52764;51.036;5.852;2022-10-16T06:32:35;15.83;67.56
65995;HTU21D;52764;51.036;5.852;2022-10-16T06:35:01;15.84;78.80
65995;HTU21D;52764;51.036;5.852;2022-10-16T06:37:27;-9.36;78.80
65995;HTU21D;52764;51.036;5.852;2022-10-16T06:39:53;15.38;78.85
65995;HTU21D;52764;51.036;5.852;2022-10-16T06:42:18;15.84;78.85
65995;HTU21D;52764;51.036;5.852;2022-10-16T06:44:44;15.86;78.56
65995;HTU21D;52764;51.036;5.852;2022-10-16T06:47:10;15.87;78.79
65995;HTU21D;52764;51.036;5.852;2022-10-16T06:49:36;15.83;78.97
65995;HTU21D;52764;51.036;5.852;2022-10-16T06:52:03;15.80;79.04
65995;HTU21D;52764;51.036;5.852;2022-10-16T06:54:29;15.78;79.06
65995;HTU21D;52764;51.036;5.852;2022-10-16T06:56:54;15.77;79.19
65995;HTU21D;52764;51.036;5.852;2022-10-16T06:59:21;15.81;78.92
65995;HTU21D;52764;51.036;5.852;2022-10-16T07:01:47;15.81;78.80
65995;HTU21D;52764;51.036;5.852;2022-10-16T07:04:13;15.82;78.74
65995;HTU21D;52764;51.036;5.852;2022-10-16T07:06:39;15.87;69.70
65995;HTU21D;52764;51.036;5.852;2022-10-16T07:09:09;15.90;78.63
65995;HTU21D;52764;51.036;5.852;2022-10-16T07:11:37;15.95;78.59
65995;HTU21D;52764;51.036;5.852;2022-10-16T07:14:04;16.04;78.57
65995;HTU21D;52764;51.036;5.852;2022-10-16T07:16:31;16.21;78.32
65995;HTU21D;52764;51.036;5.852;2022-10-16T07:19:00;16.36;77.92
65995;HTU21D;52764;51.036;5.852;2022-10-16T07:21:28;16.48;77.47
65995;HTU21D;52764;51.036;5.852;2022-10-16T07:23:57;16.54;77.21
65995;HTU21D;52764;51.036;5.852;2022-10-16T07:26:24;16.61;76.98
65995;HTU21D;52764;51.036;5.852;2022-10-16T07:28:50;16.69;73.67
65995;HTU21D;52764;51.036;5.852;2022-10-16T07:31:18;16.75;76.66
65995;HTU21D;52764;51.036;5.852;2022-10-16T07:33:46;16.81;76.52
65995;HTU21D;52764;51.036;5.852;2022-10-16T07:36:13;16.88;76.30
65995;HTU21D;52764;51.036;5.852;2022-10-16T07:38:39;16.94;76.17
65995;HTU21D;52764;51.036;5.852;2022-10-16T07:41:07;17.02;76.09
65995;HTU21D;52764;51.036;5.852;2022-10-16T07:43:34;17.04;64.38
65995;HTU21D;52764;51.036;5.852;2022-10-16T07:46:00;17.05;75.98
65995;HTU21D;52764;51.036;5.852;2022-10-16T07:48:31;17.07;75.75
65995;HTU21D;52764;51.036;5.852;2022-10-16T07:51:02;15.21;75.73
65995;HTU21D;52764;51.036;5.852;2022-10-16T07:53:29;17.15;75.51
65995;HTU21D;52764;51.036;5.852;2022-10-16T07:56:04;17.19;62.86
65995;HTU21D;52764;51.036;5.852;2022-10-16T07:58:30;17.22;75.14
65995;HTU21D;52764;51.036;5.852;2022-10-16T08:00:57;16.81;62.31
65995;HTU21D;52764;51.036;5.852;2022-10-16T08:03:23;17.34;74.76
65995;HTU21D;52764;51.036;5.852;2022-10-16T08:05:49;17.45;74.28
65995;HTU21D;52764;51.036;5.852;2022-10-16T08:08:17;17.54;74.05
65995;HTU21D;52764;51.036;5.852;2022-10-16T08:10:44;17.61;73.81
65995;HTU21D;52764;51.036;5.852;2022-10-16T08:13:09;17.73;73.41
65995;HTU21D;52764;51.036;5.852;2022-10-16T08:15:35;17.82;73.08
65995;HTU21D;52764;51.036;5.852;2022-10-16T08:18:03;16.77;72.68
65995;HTU21D;52764;51.036;5.852;2022-10-16T08:20:31;17.98;72.80
65995;HTU21D;52764;51.036;5.852;2022-10-16T08:22:57;18.08;72.32
65995;HTU21D;52764;51.036;5.852;2022-10-16T08:25:23;18.14;72.08
65995;HTU21D;52764;51.036;5.852;2022-10-16T08:27:49;18.21;71.19
65995;HTU21D;52764;51.036;5.852;2022-10-16T08:30:17;18.25;71.51
65995;HTU21D;52764;51.036;5.852;2022-10-16T08:32:43;18.30;71.26
65995;HTU21D;52764;51.036;5.852;2022-10-16T08:35:10;18.32;85.84
65995;HTU21D;52764;51.036;5.852;2022-10-16T08:37:37;18.35;70.97
65995;HTU21D;52764;51.036;5.852;2022-10-16T08:40:04;18.40;70.85
65995;HTU21D;52764;51.036;5.852;2022-10-16T08:45:21;18.55;70.75
65995;HTU21D;52764;51.036;5.852;2022-10-16T08:50:52;18.67;70.03
65995;HTU21D;52764;51.036;5.852;2022-10-16T08:53:33;18.70;69.60
65995;HTU21D;52764;51.036;5.852;2022-10-16T08:56:01;18.76;69.65
65995;HTU21D;52764;51.036;5.852;2022-10-16T08:58:29;-3.48;69.45
65995;HTU21D;52764;51.036;5.852;2022-10-16T09:01:00;18.79;69.00
65995;HTU21D;52764;51.036;5.852;2022-10-16T09:06:26;18.84;68.60
65995;HTU21D;52764;51.036;5.852;2022-10-16T09:12:18;18.92;68.29
65995;HTU21D;52764;51.036;5.852;2022-10-16T09:25:28;19.10;66.87
65995;HTU21D;52764;51.036;5.852;2022-10-16T09:27:55;19.30;67.17
65995;HTU21D;52764;51.036;5.852;2022-10-16T09:30:22;19.14;66.98
65995;HTU21D;52764;51.036;5.852;2022-10-16T09:32:52;19.15;66.78
65995;HTU21D;52764;51.036;5.852;2022-10-16T09:35:43;19.16;66.57
65995;HTU21D;52764;51.036;5.852;2022-10-16T09:38:30;19.20;66.43
65995;HTU21D;52764;51.036;5.852;2022-10-16T09:41:20;19.18;66.24
65995;HTU21D;52764;51.036;5.852;2022-10-16T09:43:59;19.41;66.05
65995;HTU21D;52764;51.036;5.852;2022-10-16T09:46:31;19.24;65.72
65995;HTU21D;52764;51.036;5.852;2022-10-16T09:48:59;19.30;65.91
65995;HTU21D;52764;51.036;5.852;2022-10-16T09:51:36;19.31;65.57
65995;HTU21D;52764;51.036;5.852;2022-10-16T09:56:36;19.38;65.62
65995;HTU21D;52764;51.036;5.852;2022-10-16T09:59:13;20.46;65.17
65995;HTU21D;52764;51.036;5.852;2022-10-16T10:01:40;19.44;65.00
65995;HTU21D;52764;51.036;5.852;2022-10-16T10:04:06;19.45;64.53
65995;HTU21D;52764;51.036;5.852;2022-10-16T10:06:53;19.99;57.01
65995;HTU21D;52764;51.036;5.852;2022-10-16T10:11:57;19.58;64.39
65995;HTU21D;52764;51.036;5.852;2022-10-16T10:19:51;19.68;63.36
65995;HTU21D;52764;51.036;5.852;2022-10-16T10:39:02;19.91;62.47
65995;HTU21D;52764;51.036;5.852;2022-10-16T10:55:37;20.29;59.78
65995;HTU21D;52764;51.036;5.852;2022-10-16T10:58:43;20.28;60.86
65995;HTU21D;52764;51.036;5.852;2022-10-16T11:01:15;20.32;60.67
65995;HTU21D;52764;51.036;5.852;2022-10-16T11:06:35;20.39;60.45
65995;HTU21D;52764;51.036;5.852;2022-10-16T11:09:21;20.40;60.54
65995;HTU21D;52764;51.036;5.852;2022-10-16T11:14:30;20.57;60.45
65995;HTU21D;52764;51.036;5.852;2022-10-16T11:17:16;20.71;60.23
65995;HTU21D;52764;51.036;5.852;2022-10-16T11:22:50;20.84;60.14
65995;HTU21D;52764;51.036;5.852;2022-10-16T11:30:40;22.82;59.44
65995;HTU21D;52764;51.036;5.852;2022-10-16T11:33:45;20.94;59.09
65995;HTU21D;52764;51.036;5.852;2022-10-16T11:39:21;20.33;58.32
65995;HTU21D;52764;51.036;5.852;2022-10-16T11:49:59;21.11;58.87
65995;HTU21D;52764;51.036;5.852;2022-10-16T11:52:36;21.16;59.07
65995;HTU21D;52764;51.036;5.852;2022-10-16T11:57:39;21.50;57.81
65995;HTU21D;52764;51.036;5.852;2022-10-16T12:06:25;21.77;56.68
65995;HTU21D;52764;51.036;5.852;2022-10-16T12:08:54;21.82;56.42
65995;HTU21D;52764;51.036;5.852;2022-10-16T12:19:20;22.03;55.85
65995;HTU21D;52764;51.036;5.852;2022-10-16T12:21:46;21.96;55.90
65995;HTU21D;52764;51.036;5.852;2022-10-16T12:24:42;21.85;56.23
65995;HTU21D;52764;51.036;5.852;2022-10-16T12:29:58;21.82;56.46
65995;HTU21D;52764;51.036;5.852;2022-10-16T12:34:51;3.00;56.24
65995;HTU21D;52764;51.036;5.852;2022-10-16T12:37:49;22.37;55.97
65995;HTU21D;52764;51.036;5.852;2022-10-16T12:40:27;22.65;55.79
65995;HTU21D;52764;51.036;5.852;2022-10-16T12:42:53;25.63;55.49
65995;HTU21D;52764;51.036;5.852;2022-10-16T12:45:31;22.41;54.51
65995;HTU21D;52764;51.036;5.852;2022-10-16T12:48:01;22.41;54.45
65995;HTU21D;52764;51.036;5.852;2022-10-16T12:50:31;22.46;54.29
65995;HTU21D;52764;51.036;5.852;2022-10-16T12:52:58;22.39;54.55
65995;HTU21D;52764;51.036;5.852;2022-10-16T12:55:24;22.44;54.61
65995;HTU21D;52764;51.036;5.852;2022-10-16T13:00:56;22.68;53.98
65995;HTU21D;52764;51.036;5.852;2022-10-16T13:14:27;22.57;54.20
65995;HTU21D;52764;51.036;5.852;2022-10-16T13:17:11;26.04;54.27
65995;HTU21D;52764;51.036;5.852;2022-10-16T13:22:48;22.63;53.57
65995;HTU21D;52764;51.036;5.852;2022-10-16T13:25:25;22.55;54.31
65995;HTU21D;52764;51.036;5.852;2022-10-16T13:27:54;22.56;51.08
65995;HTU21D;52764;51.036;5.852;2022-10-16T13:30:34;22.63;54.00
65995;HTU21D;52764;51.036;5.852;2022-10-16T13:33:12;22.58;53.88
65995;HTU21D;52764;51.036;5.852;2022-10-16T13:35:50;3.95;53.33
65995;HTU21D;52764;51.036;5.852;2022-10-16T13:38:21;22.53;53.07
65995;HTU21D;52764;51.036;5.852;2022-10-16T13:40:57;22.58;53.51
65995;HTU21D;52764;51.036;5.852;2022-10-16T13:43:31;22.60;54.31
65995;HTU21D;52764;51.036;5.852;2022-10-16T13:46:06;22.61;55.22
65995;HTU21D;52764;51.036;5.852;2022-10-16T13:48:34;22.61;55.06
65995;HTU21D;52764;51.036;5.852;2022-10-16T13:51:17;22.64;54.62
65995;HTU21D;52764;51.036;5.852;2022-10-16T13:53:45;22.68;54.62
65995;HTU21D;52764;51.036;5.852;2022-10-16T13:56:14;22.79;54.59
65995;HTU21D;52764;51.036;5.852;2022-10-16T13:58:41;22.87;54.44
65995;HTU21D;52764;51.036;5.852;2022-10-16T14:01:23;20.68;54.15
65995;HTU21D;52764;51.036;5.852;2022-10-16T14:03:51;26.68;54.00
65995;HTU21D;52764;51.036;5.852;2022-10-16T14:06:20;4.65;53.37
65995;HTU21D;52764;51.036;5.852;2022-10-16T14:09:07;22.78;52.98
65995;HTU21D;52764;51.036;5.852;2022-10-16T14:11:37;22.75;53.32
65995;HTU21D;52764;51.036;5.852;2022-10-16T14:14:05;22.70;53.25
65995;HTU21D;52764;51.036;5.852;2022-10-16T14:16:32;22.64;53.49
65995;HTU21D;52764;51.036;5.852;2022-10-16T14:19:04;4.14;53.94
65995;HTU21D;52764;51.036;5.852;2022-10-16T14:21:37;22.52;54.16
65995;HTU21D;52764;51.036;5.852;2022-10-16T14:24:31;22.52;54.56
65995;HTU21D;52764;51.036;5.852;2022-10-16T14:26:58;22.47;54.71
65995;HTU21D;52764;51.036;5.852;2022-10-16T14:29:28;22.43;54.81
65995;HTU21D;52764;51.036;5.852;2022-10-16T14:32:05;22.38;54.63
65995;HTU21D;52764;51.036;5.852;2022-10-16T14:34:35;22.34;54.23
65995;HTU21D;52764;51.036;5.852;2022-10-16T14:39:39;20.72;54.66
65995;HTU21D;52764;51.036;5.852;2022-10-16T14:42:14;22.18;55.15
65995;HTU21D;52764;51.036;5.852;2022-10-16T14:44:42;3.19;54.91
65995;HTU21D;52764;51.036;5.852;2022-10-16T14:47:13;21.88;56.00
65995;HTU21D;52764;51.036;5.852;2022-10-16T14:49:42;21.55;57.16
65995;HTU21D;52764;51.036;5.852;2022-10-16T14:52:12;21.04;59.09
65995;HTU21D;52764;51.036;5.852;2022-10-16T14:54:39;21.31;57.92
65995;HTU21D;52764;51.036;5.852;2022-10-16T14:57:05;21.32;57.82
65995;HTU21D;52764;51.036;5.852;2022-10-16T14:59:38;21.31;57.96
65995;HTU21D;52764;51.036;5.852;2022-10-16T15:02:31;21.30;59.41
65995;HTU21D;52764;51.036;5.852;2022-10-16T15:04:59;21.31;58.26
65995;HTU21D;52764;51.036;5.852;2022-10-16T15:07:27;23.59;58.29
65995;HTU21D;52764;51.036;5.852;2022-10-16T15:09:53;21.33;58.66
65995;HTU21D;52764;51.036;5.852;2022-10-16T15:12:19;23.70;58.42
65995;HTU21D;52764;51.036;5.852;2022-10-16T15:14:45;20.91;58.22
65995;HTU21D;52764;51.036;5.852;2022-10-16T15:17:11;20.93;58.31
65995;HTU21D;52764;51.036;5.852;2022-10-16T15:19:37;21.33;58.41
65995;HTU21D;52764;51.036;5.852;2022-10-16T15:22:03;21.27;58.87
65995;HTU21D;52764;51.036;5.852;2022-10-16T15:24:28;21.16;59.39
65995;HTU21D;52764;51.036;5.852;2022-10-16T15:26:55;21.08;59.99
65995;HTU21D;52764;51.036;5.852;2022-10-16T15:29:21;20.98;60.37
65995;HTU21D;52764;51.036;5.852;2022-10-16T15:31:46;20.96;60.66
65995;HTU21D;52764;51.036;5.852;2022-10-16T15:34:13;21.00;60.31
65995;HTU21D;52764;51.036;5.852;2022-10-16T15:36:39;21.05;60.08
65995;HTU21D;52764;51.036;5.852;2022-10-16T15:39:13;23.14;59.96
65995;HTU21D;52764;51.036;5.852;2022-10-16T15:41:39;21.17;63.63
65995;HTU21D;52764;51.036;5.852;2022-10-16T15:44:04;21.34;60.13
65995;HTU21D;52764;51.036;5.852;2022-10-16T15:46:30;21.23;60.14
65995;HTU21D;52764;51.036;5.852;2022-10-16T15:48:58;21.23;60.03
65995;HTU21D;52764;51.036;5.852;2022-10-16T15:51:24;21.18;63.39
65995;HTU21D;52764;51.036;5.852;2022-10-16T15:53:50;21.04;59.96
65995;HTU21D;52764;51.036;5.852;2022-10-16T15:56:17;20.88;60.34
65995;HTU21D;52764;51.036;5.852;2022-10-16T15:58:43;0.47;60.69
65995;HTU21D;52764;51.036;5.852;2022-10-16T16:01:10;0.34;65.39
65995;HTU21D;52764;51.036;5.852;2022-10-16T16:03:37;20.62;61.02
65995;HTU21D;52764;51.036;5.852;2022-10-16T16:06:08;20.60;61.11
65995;HTU21D;52764;51.036;5.852;2022-10-16T16:08:35;20.49;61.59
65995;HTU21D;52764;51.036;5.852;2022-10-16T16:11:06;20.40;62.16
65995;HTU21D;52764;51.036;5.852;2022-10-16T16:13:32;20.30;62.78
65995;HTU21D;52764;51.036;5.852;2022-10-16T16:15:58;20.20;62.92
65995;HTU21D;52764;51.036;5.852;2022-10-16T16:18:23;20.63;63.27
65995;HTU21D;52764;51.036;5.852;2022-10-16T16:20:50;20.05;70.68
65995;HTU21D;52764;51.036;5.852;2022-10-16T16:23:16;19.99;63.90
65995;HTU21D;52764;51.036;5.852;2022-10-16T16:26:12;19.96;64.20
65995;HTU21D;52764;51.036;5.852;2022-10-16T16:28:41;-1.16;64.30
65995;HTU21D;52764;51.036;5.852;2022-10-16T16:31:07;20.76;64.53
65995;HTU21D;52764;51.036;5.852;2022-10-16T16:33:33;19.89;65.28
65995;HTU21D;52764;51.036;5.852;2022-10-16T16:36:02;19.86;64.76
65995;HTU21D;52764;51.036;5.852;2022-10-16T16:38:28;19.86;65.21
65995;HTU21D;52764;51.036;5.852;2022-10-16T16:40:54;19.80;64.88
65995;HTU21D;52764;51.036;5.852;2022-10-16T16:43:25;19.72;65.15
65995;HTU21D;52764;51.036;5.852;2022-10-16T16:45:51;19.71;65.27
65995;HTU21D;52764;51.036;5.852;2022-10-16T16:48:18;20.22;65.45
65995;HTU21D;52764;51.036;5.852;2022-10-16T16:50:43;19.61;74.58
65995;HTU21D;52764;51.036;5.852;2022-10-16T16:53:09;20.12;65.66
65995;HTU21D;52764;51.036;5.852;2022-10-16T16:55:35;21.10;65.62
65995;HTU21D;52764;51.036;5.852;2022-10-16T16:58:00;19.54;67.19
65995;HTU21D;52764;51.036;5.852;2022-10-16T17:00:28;19.50;65.72
65995;HTU21D;52764;51.036;5.852;2022-10-16T17:02:57;19.47;65.95
65995;HTU21D;52764;51.036;5.852;2022-10-16T17:05:23;19.50;65.95
65995;HTU21D;52764;51.036;5.852;2022-10-16T17:07:49;19.53;66.06
65995;HTU21D;52764;51.036;5.852;2022-10-16T17:10:14;19.55;65.91
65995;HTU21D;52764;51.036;5.852;2022-10-16T17:12:40;19.51;65.88
65995;HTU21D;52764;51.036;5.852;2022-10-16T17:15:06;19.45;65.98
65995;HTU21D;52764;51.036;5.852;2022-10-16T17:17:32;20.68;65.99
65995;HTU21D;52764;51.036;5.852;2022-10-16T17:19:58;19.51;66.20
65995;HTU21D;52764;51.036;5.852;2022-10-16T17:22:23;19.55;66.37
65995;HTU21D;52764;51.036;5.852;2022-10-16T17:24:50;19.60;66.61
65995;HTU21D;52764;51.036;5.852;2022-10-16T17:27:17;19.67;66.55
65995;HTU21D;52764;51.036;5.852;2022-10-16T17:29:43;20.35;76.52
65995;HTU21D;52764;51.036;5.852;2022-10-16T17:32:09;19.72;66.90
65995;HTU21D;52764;51.036;5.852;2022-10-16T17:34:36;19.75;66.45
65995;HTU21D;52764;51.036;5.852;2022-10-16T17:37:02;19.74;66.24
65995;HTU21D;52764;51.036;5.852;2022-10-16T17:39:28;19.63;64.51
65995;HTU21D;52764;51.036;5.852;2022-10-16T17:41:54;19.56;66.45
65995;HTU21D;52764;51.036;5.852;2022-10-16T17:44:20;19.55;66.61
65995;HTU21D;52764;51.036;5.852;2022-10-16T17:46:48;20.89;66.75
65995;HTU21D;52764;51.036;5.852;2022-10-16T17:49:15;19.45;66.81
65995;HTU21D;52764;51.036;5.852;2022-10-16T17:51:41;-2.41;66.49
65995;HTU21D;52764;51.036;5.852;2022-10-16T17:54:07;19.05;68.50